createdAt,value
2022-12-15T00:03:40.873Z,18.85
2022-12-15T00:08:01.116Z,20.12
2022-12-15T00:12:21.487Z,18.45
2022-12-15T00:16:41.939Z,23.87
2022-12-15T00:21:02.440Z,20.77
2022-12-15T00:25:22.944Z,22.13
2022-12-15T00:29:43.302Z,23.02
2022-12-15T00:34:03.637Z,17.77
2022-12-15T00:38:32.768Z,24.48
2022-12-15T00:42:34.460Z,23.35
2022-12-15T00:46:54.369Z,22.10
2022-12-15T00:50:56.095Z,20.15
2022-12-15T00:55:16.247Z,20.48
2022-12-15T00:59:36.597Z,24.73
2022-12-15T01:03:57.159Z,32.67
2022-12-15T01:08:18.928Z,33.33
2022-12-15T01:12:39.494Z,27.85
2022-12-15T01:17:00.095Z,29.23
2022-12-15T01:21:05.320Z,30.73
2022-12-15T01:25:09.098Z,31.98
2022-12-15T01:29:10.758Z,34.75
2022-12-15T01:33:13.388Z,37.08
2022-12-15T01:37:15.275Z,34.78
2022-12-15T01:41:17.008Z,32.78
2022-12-15T01:45:25.030Z,37.58
2022-12-15T01:49:31.236Z,35.83
2022-12-15T01:53:37.705Z,38.83
2022-12-15T01:57:39.805Z,39.78
2022-12-15T02:01:41.631Z,39.42
2022-12-15T02:05:43.458Z,43.20
2022-12-15T02:09:48.149Z,41.10
2022-12-15T02:14:01.886Z,39.80
2022-12-15T02:18:42.974Z,45.00
2022-12-15T02:23:15.233Z,43.13
2022-12-15T02:27:34.151Z,42.83
2022-12-15T02:32:08.692Z,37.20
2022-12-15T02:36:25.671Z,41.88
2022-12-15T02:44:38.135Z,41.15
2022-12-15T02:49:09.378Z,39.47
2022-12-15T02:53:31.659Z,35.10
2022-12-15T02:57:42.052Z,34.97
2022-12-15T03:01:51.229Z,37.95
2022-12-15T03:05:54.583Z,36.65
2022-12-15T03:09:58.568Z,38.55
2022-12-15T03:14:00.227Z,36.35
2022-12-15T03:18:01.864Z,36.08
2022-12-15T03:22:04.209Z,38.08
2022-12-15T03:26:06.549Z,38.70
2022-12-15T03:30:08.680Z,38.58
2022-12-15T03:34:11.044Z,42.08
2022-12-15T03:38:13.160Z,35.95
2022-12-15T03:42:34.782Z,37.55
2022-12-15T03:46:36.415Z,36.95
2022-12-15T03:50:38.076Z,37.63
2022-12-15T03:54:39.694Z,41.72
2022-12-15T03:58:41.574Z,43.85
2022-12-15T04:02:44.166Z,48.60
2022-12-15T04:06:46.079Z,43.87
2022-12-15T04:10:47.918Z,50.40
2022-12-15T04:14:49.706Z,48.95
2022-12-15T04:19:11.354Z,46.50
2022-12-15T04:23:14.469Z,53.75
2022-12-15T04:27:34.879Z,48.42
2022-12-15T04:31:55.334Z,44.45
2022-12-15T04:36:15.980Z,52.00
2022-12-15T04:40:36.564Z,43.95
2022-12-15T04:44:56.907Z,43.25
2022-12-15T04:49:17.362Z,39.58
2022-12-15T04:53:38.409Z,46.30
2022-12-15T04:57:59.411Z,42.30
2022-12-15T05:02:20.316Z,41.22
2022-12-15T05:06:40.639Z,43.72
2022-12-15T05:11:01.051Z,43.55
2022-12-15T05:15:21.475Z,38.88
2022-12-15T05:19:42.146Z,42.97
2022-12-15T05:24:02.492Z,39.05
2022-12-15T05:28:25.932Z,42.15
2022-12-15T05:32:27.531Z,42.15
2022-12-15T05:36:29.167Z,46.65
2022-12-15T05:40:30.834Z,50.05
2022-12-15T05:44:32.498Z,46.63
2022-12-15T05:48:34.114Z,54.92
2022-12-15T05:52:35.738Z,55.97
2022-12-15T05:56:38.091Z,47.45
2022-12-15T06:00:39.702Z,44.38
2022-12-15T06:04:41.364Z,48.67
2022-12-15T06:08:43.732Z,53.40
2022-12-15T06:12:45.344Z,53.92
2022-12-15T06:16:50.259Z,51.17
2022-12-15T06:21:05.272Z,56.85
2022-12-15T06:25:07.400Z,57.97
2022-12-15T06:29:11.829Z,63.50
2022-12-15T06:33:13.634Z,60.50
2022-12-15T06:37:15.256Z,64.37
2022-12-15T06:41:18.717Z,59.75
2022-12-15T06:45:20.328Z,64.20
2022-12-15T06:49:21.970Z,60.10
2022-12-15T06:53:24.243Z,58.15
2022-12-15T06:57:25.857Z,58.20
2022-12-15T07:01:27.795Z,62.55
2022-12-15T07:05:29.940Z,59.75
2022-12-15T07:09:31.508Z,50.42
2022-12-15T07:13:34.346Z,56.85
2022-12-15T07:17:36.923Z,50.20
2022-12-15T07:21:38.618Z,54.95
2022-12-15T07:25:40.306Z,59.22
2022-12-15T07:29:42.136Z,44.33
2022-12-15T07:33:43.819Z,46.72
2022-12-15T07:37:45.823Z,50.10
2022-12-15T07:41:47.463Z,45.17
2022-12-15T07:45:53.213Z,50.25
2022-12-15T07:49:54.891Z,44.60
2022-12-15T07:53:56.621Z,56.47
2022-12-15T07:57:58.249Z,50.67
2022-12-15T08:02:01.444Z,52.28
2022-12-15T08:06:05.375Z,53.47
2022-12-15T08:10:07.317Z,58.03
2022-12-15T08:14:14.944Z,51.10
2022-12-15T08:18:18.558Z,54.78
2022-12-15T08:22:20.217Z,53.65
2022-12-15T08:26:28.211Z,51.83
2022-12-15T08:30:33.136Z,61.72
2022-12-15T08:34:35.354Z,58.42
2022-12-15T08:38:38.738Z,58.92
2022-12-15T08:42:40.483Z,58.25
2022-12-15T08:46:42.132Z,47.22
2022-12-15T08:50:46.877Z,51.37
2022-12-15T08:54:49.534Z,54.78
2022-12-15T08:58:56.051Z,52.20
2022-12-15T09:03:00.112Z,55.05
2022-12-15T09:07:01.986Z,54.65
2022-12-15T09:11:05.568Z,59.40
2022-12-15T09:15:07.748Z,59.03
2022-12-15T09:19:09.610Z,58.45
2022-12-15T09:23:11.272Z,59.92
2022-12-15T09:27:12.917Z,62.05
2022-12-15T09:31:29.001Z,62.72
2022-12-15T09:35:30.703Z,58.37
2022-12-15T09:39:32.435Z,58.78
2022-12-15T09:43:35.396Z,64.35
2022-12-15T09:48:00.755Z,67.55
2022-12-15T09:52:23.029Z,68.60
2022-12-15T09:56:49.764Z,64.85
2022-12-15T10:01:36.110Z,62.28
2022-12-15T10:06:15.408Z,64.85
2022-12-15T10:10:29.492Z,60.55
2022-12-15T10:14:32.960Z,67.93
2022-12-15T10:19:15.501Z,66.72
2022-12-15T10:23:17.836Z,68.25
2022-12-15T10:27:43.094Z,66.18
2022-12-15T10:31:55.508Z,61.37
2022-12-15T10:35:57.301Z,60.72
2022-12-15T10:39:58.890Z,59.25
2022-12-15T10:44:02.513Z,64.37
2022-12-15T10:48:06.618Z,69.30
2022-12-15T10:52:21.147Z,60.38
2022-12-15T10:56:32.766Z,63.83
2022-12-15T11:00:35.799Z,64.00
2022-12-15T11:04:37.526Z,60.12
2022-12-15T11:08:42.591Z,59.35
2022-12-15T11:12:58.180Z,61.35
2022-12-15T11:17:00.169Z,65.37
2022-12-15T11:21:12.050Z,62.75
2022-12-15T11:25:24.908Z,65.43
2022-12-15T11:29:37.604Z,66.18
2022-12-15T11:33:39.304Z,64.97
2022-12-15T11:37:47.005Z,70.35
2022-12-15T11:42:21.316Z,68.07
2022-12-15T11:46:27.120Z,69.65
2022-12-15T11:50:39.786Z,61.90
2022-12-15T11:54:53.210Z,65.20
2022-12-15T11:59:12.001Z,63.70
2022-12-15T12:03:30.563Z,64.22
2022-12-15T12:08:14.828Z,66.22
2022-12-15T12:12:27.843Z,63.70
2022-12-15T12:16:46.003Z,59.10
2022-12-15T12:21:02.512Z,64.53
2022-12-15T12:25:16.899Z,63.00
2022-12-15T12:29:28.515Z,66.70
2022-12-15T12:33:46.871Z,63.95
2022-12-15T12:38:03.242Z,68.00
2022-12-15T12:42:09.377Z,66.53
2022-12-15T12:46:15.455Z,64.37
2022-12-15T12:50:25.832Z,62.97
2022-12-15T12:54:36.474Z,70.72
2022-12-15T12:58:41.311Z,59.80
2022-12-15T13:02:54.990Z,63.05
2022-12-15T13:07:00.397Z,62.28
2022-12-15T13:11:45.175Z,54.83
2022-12-15T13:15:51.188Z,61.00
2022-12-15T13:20:10.732Z,55.97
2022-12-15T13:24:41.220Z,53.30
2022-12-15T13:28:47.889Z,51.78
2022-12-15T13:33:13.085Z,53.85
2022-12-15T13:37:51.148Z,52.90
2022-12-15T13:42:32.760Z,54.67
2022-12-15T13:46:32.755Z,53.83
2022-12-15T13:55:25.752Z,54.35
2022-12-15T13:59:44.364Z,57.83
2022-12-15T14:04:00.163Z,55.53
2022-12-15T14:08:03.419Z,52.80
2022-12-15T14:12:10.739Z,50.90
2022-12-15T14:16:17.969Z,50.92
2022-12-15T14:20:22.584Z,45.22
2022-12-15T14:24:39.629Z,54.60
2022-12-15T14:28:47.667Z,52.28
2022-12-15T14:33:13.596Z,48.92
2022-12-15T14:37:19.511Z,48.65
2022-12-15T14:41:24.994Z,50.87
2022-12-15T14:45:30.705Z,48.28
2022-12-15T14:49:39.894Z,47.80
2022-12-15T14:53:42.676Z,51.53
2022-12-15T14:57:46.368Z,63.92
2022-12-15T15:01:58.761Z,58.70
2022-12-15T15:03:07.607Z,53.08
2022-12-15T15:06:06.075Z,55.65
2022-12-15T15:14:30.921Z,58.85
2022-12-15T15:18:33.573Z,51.92
2022-12-15T15:23:07.767Z,52.10
2022-12-15T15:27:27.327Z,55.95
2022-12-15T15:31:40.869Z,57.08
2022-12-15T15:35:44.938Z,56.75
2022-12-15T15:39:54.316Z,50.12
2022-12-15T15:44:01.451Z,54.33
2022-12-15T15:48:04.055Z,57.15
2022-12-15T15:52:05.759Z,58.58
2022-12-15T15:56:11.506Z,58.55
2022-12-15T16:00:19.107Z,61.53
2022-12-15T16:04:20.890Z,60.08
2022-12-15T16:08:28.616Z,53.08
2022-12-15T16:12:42.205Z,56.30
2022-12-15T16:16:44.571Z,53.60
2022-12-15T16:20:50.216Z,57.72
2022-12-15T16:24:51.867Z,52.15
2022-12-15T16:28:54.057Z,51.13
2022-12-15T16:32:55.951Z,52.00
2022-12-15T16:36:58.299Z,55.10
2022-12-15T16:41:07.138Z,57.83
2022-12-15T16:45:15.631Z,52.90
2022-12-15T16:49:17.279Z,51.85
2022-12-15T16:53:27.506Z,58.03
2022-12-15T16:57:29.345Z,62.03
2022-12-15T17:01:34.226Z,67.75
2022-12-15T17:05:40.876Z,57.47
2022-12-15T17:09:42.518Z,50.28
2022-12-15T17:13:47.915Z,51.22
2022-12-15T17:17:50.842Z,46.75
2022-12-15T17:21:53.866Z,52.00
2022-12-15T17:30:18.212Z,60.72
2022-12-15T17:34:28.062Z,45.58
2022-12-15T17:38:30.135Z,46.92
2022-12-15T17:42:31.766Z,44.95
2022-12-15T17:46:33.469Z,49.58
2022-12-15T17:50:35.602Z,47.50
2022-12-15T17:54:37.449Z,51.30
2022-12-15T17:58:39.402Z,45.20
2022-12-15T18:02:41.143Z,51.88
2022-12-15T18:06:44.278Z,50.28
2022-12-15T18:10:48.410Z,48.60
2022-12-15T18:14:50.829Z,50.45
2022-12-15T18:18:52.609Z,53.85
2022-12-15T18:22:54.239Z,49.90
2022-12-15T18:26:56.030Z,53.75
2022-12-15T18:31:21.568Z,63.13
2022-12-15T18:35:32.574Z,60.58
2022-12-15T18:39:34.240Z,52.62
2022-12-15T18:43:36.130Z,56.60
2022-12-15T18:47:37.831Z,53.80
2022-12-15T18:51:39.638Z,53.30
2022-12-15T18:55:41.397Z,54.75
2022-12-15T18:59:43.104Z,64.70
2022-12-15T19:03:44.772Z,52.80
2022-12-15T19:07:46.413Z,48.47
2022-12-15T19:12:15.647Z,48.78
2022-12-15T19:16:19.750Z,49.58
2022-12-15T19:20:40.191Z,58.08
2022-12-15T19:24:54.032Z,57.03
2022-12-15T19:28:55.758Z,48.60
2022-12-15T19:32:57.435Z,52.10
2022-12-15T19:37:00.995Z,60.20
2022-12-15T19:41:02.611Z,52.62
2022-12-15T19:45:16.642Z,63.47
2022-12-15T19:49:18.343Z,53.63
2022-12-15T19:53:26.520Z,63.63
2022-12-15T19:57:28.139Z,50.92
2022-12-15T20:01:29.871Z,58.13
2022-12-15T20:05:32.744Z,48.72
2022-12-15T20:09:34.549Z,51.80
2022-12-15T20:13:36.579Z,53.80
2022-12-15T20:17:38.978Z,52.90
2022-12-15T20:21:41.462Z,47.03
2022-12-15T20:25:43.559Z,54.40
2022-12-15T20:29:45.306Z,58.10
2022-12-15T20:33:47.923Z,54.55
2022-12-15T20:37:50.111Z,60.88
2022-12-15T20:41:52.753Z,53.92
2022-12-15T20:46:07.348Z,72.55
2022-12-15T20:50:36.160Z,56.63
2022-12-15T20:54:37.809Z,52.25
2022-12-15T20:58:39.703Z,58.05
2022-12-15T21:02:43.089Z,56.47
2022-12-15T21:06:47.613Z,52.72
2022-12-15T21:10:55.766Z,53.15
2022-12-15T21:14:57.400Z,52.10
2022-12-15T21:19:19.710Z,48.65
2022-12-15T21:23:31.470Z,43.33
2022-12-15T21:27:33.091Z,47.78
2022-12-15T21:31:34.763Z,53.05
2022-12-15T21:35:38.083Z,49.00
2022-12-15T21:39:40.005Z,48.55
2022-12-15T21:43:42.282Z,48.17
2022-12-15T21:48:02.766Z,50.72
2022-12-15T21:52:04.645Z,41.50
2022-12-15T21:56:06.575Z,50.55
2022-12-15T22:00:13.380Z,49.35
2022-12-15T22:04:18.681Z,46.72
2022-12-15T22:08:23.749Z,48.60
2022-12-15T22:12:26.689Z,47.08
2022-12-15T22:16:28.405Z,44.78
2022-12-15T22:20:30.021Z,51.45
2022-12-15T22:24:31.682Z,50.80
2022-12-15T22:28:34.071Z,49.85
2022-12-15T22:32:36.376Z,49.38
2022-12-15T22:36:38.005Z,47.72
2022-12-15T22:40:39.926Z,50.65
2022-12-15T22:44:41.643Z,46.10
2022-12-15T22:48:47.266Z,45.10
2022-12-15T22:52:50.001Z,44.07
2022-12-15T22:57:04.339Z,46.20
2022-12-15T23:01:06.558Z,51.05
2022-12-15T23:05:09.200Z,46.05
2022-12-15T23:09:10.890Z,41.70
2022-12-15T23:13:12.529Z,47.30
2022-12-15T23:17:14.392Z,54.17
2022-12-15T23:21:16.670Z,54.58
2022-12-15T23:25:18.458Z,54.28
2022-12-15T23:29:20.242Z,50.60
2022-12-15T23:33:22.758Z,47.92
2022-12-15T23:37:24.406Z,47.40
2022-12-15T23:41:26.540Z,48.25
2022-12-15T23:45:28.204Z,47.62
2022-12-15T23:49:30.167Z,43.08
2022-12-15T23:53:32.978Z,47.40
2022-12-15T23:57:34.970Z,44.67
